Time;durP1;ratioP1;P1;durP2;ratioP2;P2;SDS_P1;SDS_P2;PMS_P1;PMS_P2;Temp;Humidity;BMP_temperature;BMP_pressure;BME280_temperature;BME280_humidity;BME280_pressure;Samples;Min_cycle;Max_cycle;Signal;HPM_P1;HPM_P2
2023/01/13 00:01:32;;;;;;;9.90;5.13;;;7.10;99.90;;;6.93;69.68;99845.22;5108468;28;20681;-66
2023/01/13 00:04:01;;;;;;;13.73;5.73;;;7.10;99.90;;;6.93;69.46;99864.00;5105059;28;20234;-67
2023/01/13 00:06:29;;;;;;;9.93;5.57;;;7.00;99.90;;;6.93;69.21;99850.34;5113797;28;20225;-68
2023/01/13 00:08:58;;;;;;;11.80;5.23;;;7.10;99.90;;;6.93;68.90;99845.22;5109712;28;20294;-67
2023/01/13 00:11:26;;;;;;;11.20;5.80;;;7.10;99.90;;;6.92;69.32;99843.50;5114638;28;20231;-67
2023/01/13 00:13:55;;;;;;;10.13;5.33;;;7.10;99.90;;;6.92;69.58;99844.38;5108423;28;20662;-66
2023/01/13 00:16:24;;;;;;;12.27;6.07;;;7.00;99.90;;;6.93;69.33;99840.13;5107454;28;20223;-67
2023/01/13 00:18:54;;;;;;;9.17;5.43;;;7.10;99.90;;;6.96;69.26;99846.09;5106261;28;20208;-68
2023/01/13 00:21:24;;;;;;;11.80;5.60;;;7.10;99.90;;;6.92;69.55;99835.81;5110761;28;20219;-69
2023/01/13 00:23:54;;;;;;;8.83;5.57;;;7.00;99.90;;;6.93;69.80;99835.00;5114249;28;20206;-67
2023/01/13 00:26:26;;;;;;;10.67;5.90;;;7.00;99.90;;;6.93;69.93;99847.78;5114249;28;20211;-68
2023/01/13 00:28:57;;;;;;;10.40;5.00;;;7.00;99.90;;;6.92;69.62;99844.38;5114655;28;20257;-67
2023/01/13 00:31:26;;;;;;;10.50;5.30;;;7.00;99.90;;;6.93;69.71;99840.13;5112573;28;20202;-65
2023/01/13 00:33:59;;;;;;;11.03;5.47;;;7.00;99.90;;;6.95;70.40;99835.81;5114582;28;20678;-67
2023/01/13 00:36:28;;;;;;;11.47;5.57;;;7.00;99.90;;;6.96;70.15;99835.00;5111275;28;21446;-67
2023/01/13 00:38:56;;;;;;;12.17;6.37;;;7.00;99.90;;;6.93;69.96;99840.97;5111673;28;20200;-68
2023/01/13 00:41:26;;;;;;;9.77;5.40;;;7.00;99.90;;;6.92;70.46;99834.13;5113880;28;20204;-67
2023/01/13 00:43:54;;;;;;;9.60;4.97;;;7.00;99.90;;;6.92;70.20;99838.38;5114538;28;20556;-67
2023/01/13 00:46:22;;;;;;;9.37;5.50;;;7.00;99.90;;;6.92;70.43;99825.56;5112438;28;20260;-67
2023/01/13 00:48:51;;;;;;;9.17;5.40;;;7.00;99.90;;;6.90;70.78;99840.94;5109409;28;20196;-66
2023/01/13 00:51:21;;;;;;;7.73;5.13;;;7.00;99.90;;;6.91;70.66;99834.13;5109665;28;20216;-68
2023/01/13 00:53:51;;;;;;;11.13;6.17;;;7.00;99.90;;;6.92;70.60;99839.25;5098809;27;20216;-67
2023/01/13 00:56:22;;;;;;;8.90;5.43;;;7.00;99.90;;;6.92;70.40;99836.69;5113014;28;20211;-66
2023/01/13 00:59:09;;;;;;;11.30;5.80;;;7.00;99.90;;;6.89;71.22;99848.66;5109620;28;20203;-66
2023/01/13 01:01:38;;;;;;;11.83;5.90;;;7.00;99.90;;;6.84;71.38;99837.53;5103472;28;20220;-67
2023/01/13 01:04:07;;;;;;;10.20;5.23;;;7.00;99.90;;;6.81;71.82;99840.94;5113395;28;20225;-68
2023/01/13 01:06:37;;;;;;;11.40;6.07;;;6.90;99.90;;;6.77;72.71;99837.56;5110491;28;20286;-67
2023/01/13 01:09:06;;;;;;;9.40;5.43;;;6.90;99.90;;;6.72;73.29;99834.13;5110907;28;20207;-67
2023/01/13 01:11:35;;;;;;;9.40;6.00;;;6.80;99.90;;;6.69;72.86;99825.56;5109546;28;20208;-66
2023/01/13 01:14:04;;;;;;;7.43;5.03;;;6.80;99.90;;;6.67;73.22;99820.47;5110623;28;20524;-67
2023/01/13 01:16:34;;;;;;;12.43;6.37;;;6.80;99.90;;;6.66;72.97;99811.06;5105754;28;20246;-67
2023/01/13 01:19:03;;;;;;;11.73;5.93;;;6.80;99.90;;;6.66;72.99;99805.09;5108470;28;20230;-68
2023/01/13 01:21:32;;;;;;;13.60;6.00;;;6.80;99.90;;;6.65;72.20;99803.41;5112162;28;20553;-68
2023/01/13 01:24:04;;;;;;;9.80;5.40;;;6.70;99.90;;;6.67;72.54;99811.94;5110516;28;20224;-68
2023/01/13 01:26:33;;;;;;;8.53;5.00;;;6.70;99.90;;;6.66;72.41;99810.22;5112316;28;20196;-67
2023/01/13 01:29:02;;;;;;;10.73;5.80;;;6.70;99.90;;;6.65;72.58;99804.25;5110318;28;20207;-68
2023/01/13 01:31:32;;;;;;;10.93;5.70;;;6.70;99.90;;;6.64;72.33;99812.78;5100177;28;20208;-67
2023/01/13 01:34:01;;;;;;;9.03;5.50;;;6.70;99.90;;;6.61;72.43;99805.09;5111898;28;20235;-67
2023/01/13 01:36:30;;;;;;;11.17;5.60;;;6.70;99.90;;;6.61;72.38;99802.53;5112238;28;20652;-66
2023/01/13 01:38:59;;;;;;;9.30;5.53;;;6.70;99.90;;;6.60;72.41;99793.16;5109845;28;20265;-65
2023/01/13 01:41:32;;;;;;;11.87;6.10;;;6.70;99.90;;;6.59;72.84;99788.91;5112392;28;20200;-66
2023/01/13 01:44:05;;;;;;;11.87;5.33;;;6.70;99.90;;;6.61;73.21;99786.31;5110874;28;20874;-66
2023/01/13 01:46:37;;;;;;;10.97;5.27;;;6.70;99.90;;;6.62;72.45;99777.78;5110279;28;20245;-67
2023/01/13 01:49:13;;;;;;;12.23;5.20;;;6.70;99.90;;;6.61;72.78;99787.19;5110235;28;20196;-67
2023/01/13 01:51:50;;;;;;;9.10;5.27;;;6.70;99.90;;;6.59;73.63;99772.66;5113953;28;20207;-65
2023/01/13 01:54:24;;;;;;;12.70;5.47;;;6.70;99.90;;;6.59;73.17;99772.66;5111431;28;20196;-67
2023/01/13 01:56:54;;;;;;;12.93;5.93;;;6.70;99.90;;;6.57;73.58;99772.66;5112173;28;20636;-66
2023/01/13 01:59:25;;;;;;;12.17;5.73;;;6.70;99.90;;;6.56;73.86;99768.41;5105562;28;20261;-66
2023/01/13 02:01:54;;;;;;;8.50;4.83;;;6.70;99.90;;;6.58;74.23;99761.56;5108537;28;20227;-67
2023/01/13 02:04:29;;;;;;;10.67;5.20;;;6.70;99.90;;;6.54;74.16;99758.16;5110155;28;20334;-70
2023/01/13 02:06:58;;;;;;;8.30;5.43;;;6.70;99.90;;;6.55;73.48;99753.88;5108500;28;20203;-66
2023/01/13 02:09:27;;;;;;;9.20;4.93;;;6.70;99.90;;;6.55;74.10;99756.44;5111467;28;20208;-67
2023/01/13 02:14:45;;;;;;;8.83;5.33;;;6.60;99.90;;;6.56;74.08;99755.63;5099004;28;20196;-66
2023/01/13 02:17:32;;;;;;;11.33;5.10;;;6.60;99.90;;;6.54;73.99;99750.47;5109005;28;20232;-67
2023/01/13 02:20:44;;;;;;;10.53;5.33;;;6.60;99.90;;;6.53;74.34;99750.50;5106272;28;20205;-68
2023/01/13 02:27:17;;;;;;;9.70;4.53;;;6.60;99.90;;;6.52;74.10;99748.78;5112274;28;20203;-68
2023/01/13 02:33:10;;;;;;;7.23;4.97;;;6.60;99.90;;;6.51;73.93;99745.34;5107879;28;20193;-66
2023/01/13 02:35:50;;;;;;;8.40;4.57;;;6.60;99.90;;;6.50;74.11;99745.38;5111375;28;20200;-68
2023/01/13 02:38:26;;;;;;;9.20;5.13;;;6.60;99.90;;;6.48;74.30;99750.50;5110670;28;20221;-67
2023/01/13 02:44:05;;;;;;;9.83;5.23;;;6.60;99.90;;;6.53;74.80;99735.13;5108834;28;20208;-67
2023/01/13 02:44:07;;;;;;;11.63;5.67;;;6.60;99.90;;;6.51;75.13;99735.13;5108782;28;20211;-67
2023/01/13 02:46:57;;;;;;;9.33;5.13;;;6.60;99.90;;;6.47;75.49;99738.53;5111092;28;20203;-69
2023/01/13 02:49:36;;;;;;;9.80;5.23;;;6.60;99.90;;;6.45;75.47;99747.09;5110095;28;20208;-67
2023/01/13 02:52:12;;;;;;;10.10;5.10;;;6.60;99.90;;;6.45;75.67;99739.41;5111435;28;20736;-66
2023/01/13 02:54:45;;;;;;;9.00;5.37;;;6.50;99.90;;;6.43;75.66;99712.94;5104252;28;20228;-66
2023/01/13 02:57:17;;;;;;;14.07;5.93;;;6.50;99.90;;;6.43;75.46;99707.84;5099361;28;20682;-67
2023/01/13 02:59:46;;;;;;;9.97;5.43;;;6.50;99.90;;;6.43;75.97;99711.25;5113821;28;20219;-67
2023/01/13 03:02:19;;;;;;;12.53;5.50;;;6.50;99.90;;;6.43;76.10;99711.25;5111567;28;20728;-66
2023/01/13 03:04:53;;;;;;;7.97;4.77;;;6.50;99.90;;;6.41;75.58;99697.59;5116046;28;20664;-67
2023/01/13 03:07:55;;;;;;;8.43;5.20;;;6.50;99.90;;;6.40;75.90;99693.31;5115735;28;20196;-66
2023/01/13 03:10:50;;;;;;;7.20;4.80;;;6.50;99.90;;;6.41;75.57;99694.19;5116580;28;20267;-67
2023/01/13 03:13:54;;;;;;;12.10;5.63;;;6.50;99.90;;;6.46;75.40;99700.16;5108560;28;20204;-67
2023/01/13 03:16:34;;;;;;;8.27;4.40;;;6.60;99.90;;;6.46;75.60;99692.47;5114739;28;20743;-67
2023/01/13 03:19:28;;;;;;;10.00;4.80;;;6.60;99.90;;;6.47;75.64;99689.06;5106705;28;20424;-67
2023/01/13 03:22:05;;;;;;;9.37;4.60;;;6.60;99.90;;;6.49;75.20;99695.03;5104796;28;20220;-68
2023/01/13 03:24:39;;;;;;;7.87;4.57;;;6.60;99.90;;;6.48;75.37;99694.19;5114977;28;20680;-67
2023/01/13 03:27:18;;;;;;;8.07;4.83;;;6.60;99.90;;;6.49;75.44;99695.03;5113697;28;20295;-66
2023/01/13 03:29:50;;;;;;;11.77;4.83;;;6.60;99.90;;;6.51;75.66;99690.75;5110529;28;20619;-68
2023/01/13 03:32:25;;;;;;;8.43;4.40;;;6.60;99.90;;;6.52;75.22;99702.72;5113754;28;20200;-68
2023/01/13 03:35:03;;;;;;;9.33;4.67;;;6.60;99.90;;;6.52;75.15;99701.00;5115249;28;20526;-67
2023/01/13 03:37:35;;;;;;;8.07;4.80;;;6.60;99.90;;;6.52;75.43;99695.91;5115058;28;20204;-67
2023/01/13 03:40:11;;;;;;;10.70;5.30;;;6.60;99.90;;;6.50;75.66;99689.06;5115403;28;20196;-67
2023/01/13 03:44:20;;;;;;;9.03;4.77;;;6.60;99.90;;;6.48;75.91;99699.31;5107129;28;21005;-68
2023/01/13 03:45:34;;;;;;;9.07;4.63;;;6.60;99.90;;;6.45;75.98;99694.19;5104770;28;20196;-68
2023/01/13 03:48:08;;;;;;;7.60;4.90;;;6.60;99.90;;;6.45;75.80;99683.09;5105627;28;20426;-67
2023/01/13 03:50:45;;;;;;;8.43;4.57;;;6.60;99.90;;;6.45;75.69;99690.78;5111068;28;20249;-68
2023/01/13 03:53:18;;;;;;;7.33;4.97;;;6.60;99.90;;;6.43;76.00;99679.69;5109858;28;20192;-66
2023/01/13 03:55:52;;;;;;;9.20;5.10;;;6.60;99.90;;;6.43;76.21;99684.81;5115049;28;20203;-68
2023/01/13 03:58:24;;;;;;;10.00;5.07;;;6.60;99.90;;;6.39;76.57;99677.97;5113859;28;20258;-69
2023/01/13 04:00:57;;;;;;;9.97;5.43;;;6.50;99.90;;;6.37;77.16;99679.66;5102798;28;20220;-67
2023/01/13 04:03:33;;;;;;;8.47;4.90;;;6.50;99.90;;;6.38;77.66;99683.97;5113642;28;20704;-67
2023/01/13 04:06:13;;;;;;;9.63;5.03;;;6.50;99.90;;;6.36;77.61;99683.09;5113946;28;20606;-67
2023/01/13 04:08:49;;;;;;;8.40;5.27;;;6.50;99.90;;;6.36;77.66;99688.22;5109711;28;20200;-68
2023/01/13 04:11:26;;;;;;;8.63;5.17;;;6.50;99.90;;;6.34;78.08;99685.66;5104083;28;20401;-67
2023/01/13 04:13:56;;;;;;;11.33;5.53;;;6.50;99.90;;;6.33;78.11;99688.22;5114038;28;20202;-68
2023/01/13 04:16:25;;;;;;;9.73;5.17;;;6.40;99.90;;;6.31;78.20;99680.53;5113522;28;20372;-68
2023/01/13 04:18:53;;;;;;;9.33;5.67;;;6.40;99.90;;;6.32;78.93;99676.28;5113538;28;20253;-67
2023/01/13 04:21:23;;;;;;;8.90;5.30;;;6.40;99.90;;;6.31;78.94;99678.00;5113945;28;20195;-66
2023/01/13 04:23:52;;;;;;;8.97;5.13;;;6.40;99.90;;;6.28;78.97;99681.38;5113998;28;20219;-69
2023/01/13 04:26:22;;;;;;;7.03;4.50;;;6.40;99.90;;;6.27;78.55;99682.25;5113453;28;20268;-66
2023/01/13 04:28:53;;;;;;;8.97;4.80;;;6.40;99.90;;;6.28;78.61;99681.38;5112684;28;20257;-66
2023/01/13 04:31:22;;;;;;;8.90;5.33;;;6.40;99.90;;;6.28;78.52;99677.97;5111470;28;20196;-67
2023/01/13 04:33:50;;;;;;;14.17;5.40;;;6.40;99.90;;;6.28;78.31;99666.03;5110005;28;20698;-66
2023/01/13 04:36:23;;;;;;;8.30;4.40;;;6.40;99.90;;;6.29;78.84;99672.84;5113639;28;20204;-67
2023/01/13 04:38:54;;;;;;;9.83;4.73;;;6.40;99.90;;;6.27;78.49;99661.78;5110094;28;20491;-65
2023/01/13 04:41:22;;;;;;;10.93;5.67;;;6.40;99.90;;;6.29;78.57;99667.72;5113581;28;20271;-68
2023/01/13 04:43:51;;;;;;;8.63;5.03;;;6.40;99.90;;;6.30;79.06;99658.38;5106487;28;20680;-66
2023/01/13 04:46:19;;;;;;;7.70;4.70;;;6.40;99.90;;;6.31;78.59;99675.44;5111110;28;20292;-69
2023/01/13 04:48:48;;;;;;;8.50;5.50;;;6.40;99.90;;;6.31;78.76;99672.03;5112563;28;20304;-67
2023/01/13 04:51:17;;;;;;;7.63;5.20;;;6.40;99.90;;;6.33;78.93;99670.28;5112403;28;20207;-67
2023/01/13 04:53:45;;;;;;;7.30;4.83;;;6.40;99.90;;;6.32;78.89;99666.88;5104362;28;20204;-66
2023/01/13 04:56:15;;;;;;;9.03;5.13;;;6.40;99.90;;;6.33;78.66;99672.84;5111625;28;20239;-68
2023/01/13 04:58:43;;;;;;;11.60;5.10;;;6.40;99.90;;;6.33;78.88;99667.75;5111585;28;20204;-67
2023/01/13 05:01:12;;;;;;;10.27;5.43;;;6.40;99.90;;;6.33;78.95;99673.72;5107439;28;20765;-67
2023/01/13 05:03:40;;;;;;;7.40;4.15;;;6.40;99.90;;;6.37;78.64;99672.00;5112950;28;20204;-67
2023/01/13 05:06:09;;;;;;;9.50;4.70;;;6.50;99.90;;;6.38;78.94;99678.84;5113477;28;20480;-67
2023/01/13 05:08:37;;;;;;;9.90;4.50;;;6.50;99.90;;;6.39;78.86;99665.19;5111400;28;20204;-67
2023/01/13 05:16:58;;;;;;;11.20;4.57;;;6.50;99.90;;;6.39;78.49;99670.31;5113046;28;20212;-67
2023/01/13 05:17:00;;;;;;;6.63;4.03;;;6.50;99.90;;;6.44;78.74;99659.22;5101189;28;20324;-66
2023/01/13 05:19:30;;;;;;;9.10;4.47;;;6.60;99.90;;;6.46;78.92;99669.44;5110771;28;20242;-67
2023/01/13 05:27:32;;;;;;;9.73;5.10;;;6.60;99.90;;;6.47;79.66;99671.16;5102528;28;20708;-68
2023/01/13 05:30:02;;;;;;;8.00;4.50;;;6.60;99.90;;;6.47;79.51;99681.38;5106606;28;20280;-66
2023/01/13 05:32:30;;;;;;;7.57;4.63;;;6.70;99.90;;;6.46;79.25;99666.88;5112616;28;20207;-68
2023/01/13 05:34:59;;;;;;;8.00;4.47;;;6.60;99.90;;;6.47;79.10;99672.00;5113343;28;20632;-65
2023/01/13 05:37:27;;;;;;;7.30;4.40;;;6.60;99.90;;;6.48;79.31;99672.84;5111935;28;20208;-66
2023/01/13 05:45:30;;;;;;;7.87;4.27;;;6.60;99.90;;;6.46;80.02;99672.00;5108876;28;20216;-67
2023/01/13 05:47:59;;;;;;;9.10;4.77;;;6.60;99.90;;;6.42;79.97;99670.31;5108804;28;20200;-68
2023/01/13 05:50:27;;;;;;;8.30;4.40;;;6.60;99.90;;;6.40;80.46;99670.28;5096624;28;20258;-66
2023/01/13 05:52:55;;;;;;;8.17;4.80;;;6.50;99.90;;;6.39;80.89;99668.59;5110584;28;20256;-66
2023/01/13 05:55:24;;;;;;;9.53;4.93;;;6.50;99.90;;;6.38;81.15;99671.16;5105736;28;20262;-67
2023/01/13 05:57:52;;;;;;;9.20;4.43;;;6.50;99.90;;;6.38;80.74;99681.41;5109454;28;20230;-68
2023/01/13 06:00:21;;;;;;;12.93;5.17;;;6.50;99.90;;;6.37;81.43;99675.44;5101707;28;20231;-68
2023/01/13 06:02:52;;;;;;;8.60;4.50;;;6.50;99.90;;;6.33;81.30;99673.72;5107710;28;20235;-67
2023/01/13 06:05:20;;;;;;;8.70;4.57;;;6.50;99.90;;;6.31;81.48;99687.38;5107638;28;20216;-67
2023/01/13 06:07:49;;;;;;;7.30;4.37;;;6.40;99.90;;;6.27;81.82;99679.69;5107886;28;20600;-68
2023/01/13 06:10:18;;;;;;;7.57;4.80;;;6.40;99.90;;;6.28;81.78;99686.50;5103672;28;20212;-66
2023/01/13 06:12:46;;;;;;;10.67;4.87;;;6.40;99.90;;;6.29;81.98;99683.09;5108010;28;20245;-67
2023/01/13 06:15:15;;;;;;;7.67;4.60;;;6.40;99.90;;;6.28;82.56;99695.88;5109908;28;20208;-67
2023/01/13 06:17:43;;;;;;;8.07;4.33;;;6.40;99.90;;;6.27;82.07;99689.94;5110110;28;20710;-67
2023/01/13 06:20:14;;;;;;;10.87;4.53;;;6.40;99.90;;;6.26;82.24;99690.78;5114823;28;20208;-67
2023/01/13 06:22:46;;;;;;;8.70;5.00;;;6.40;99.90;;;6.28;82.27;99696.75;5122238;28;20207;-67
2023/01/13 06:25:24;;;;;;;8.23;4.97;;;6.40;99.90;;;6.24;81.74;99695.03;5117921;28;20238;-65
2023/01/13 06:27:54;;;;;;;11.37;5.03;;;6.40;99.90;;;6.23;82.69;99698.47;5110187;28;20188;-67
2023/01/13 06:30:22;;;;;;;10.27;5.07;;;6.40;99.90;;;6.24;82.15;99692.47;5111294;28;20211;-69
2023/01/13 06:32:54;;;;;;;8.17;4.27;;;6.40;99.90;;;6.24;82.70;99689.06;5115341;28;20760;-67
2023/01/13 06:35:29;;;;;;;8.00;4.63;;;6.50;99.90;;;6.25;82.12;99690.75;5122146;28;20294;-67
2023/01/13 06:38:00;;;;;;;7.83;5.37;;;6.40;99.90;;;6.25;82.27;99694.16;5125828;28;20252;-68
2023/01/13 06:40:29;;;;;;;11.50;5.17;;;6.40;99.90;;;6.29;82.37;99693.31;5127649;28;20218;-68
2023/01/13 06:43:17;;;;;;;7.50;4.70;;;6.40;99.90;;;6.29;82.62;99698.44;5128624;28;20416;-68
2023/01/13 06:45:50;;;;;;;7.40;5.03;;;6.40;99.90;;;6.28;82.23;99691.63;5119470;28;20250;-67
2023/01/13 06:48:22;;;;;;;8.17;4.70;;;6.40;99.90;;;6.31;82.29;99700.16;5121288;28;20264;-67
2023/01/13 06:50:51;;;;;;;7.27;4.50;;;6.40;99.90;;;6.30;82.29;99694.19;5119475;28;20248;-66
2023/01/13 06:53:20;;;;;;;7.27;4.67;;;6.40;99.90;;;6.32;82.06;99696.75;5120554;28;20207;-66
2023/01/13 06:55:48;;;;;;;8.13;4.30;;;6.40;99.90;;;6.33;81.82;99695.88;5122269;28;20254;-69
2023/01/13 06:58:17;;;;;;;7.47;4.13;;;6.40;99.90;;;6.36;81.49;99690.78;5118474;28;20225;-69
2023/01/13 07:00:50;;;;;;;8.23;4.40;;;6.50;99.90;;;6.35;81.48;99691.63;5111557;28;20643;-67
2023/01/13 07:03:20;;;;;;;7.23;4.53;;;6.50;99.90;;;6.36;81.27;99690.78;5115924;28;20259;-66
2023/01/13 07:05:55;;;;;;;8.77;4.67;;;6.50;99.90;;;6.39;81.39;99701.00;5117059;28;20272;-68
2023/01/13 07:08:24;;;;;;;8.97;4.30;;;6.50;99.90;;;6.39;81.54;99699.31;5114988;28;20207;-66
2023/01/13 07:10:53;;;;;;;9.20;4.43;;;6.50;99.90;;;6.42;81.60;99695.91;5116230;28;20215;-66
2023/01/13 07:16:08;;;;;;;7.77;4.20;;;6.60;99.90;;;6.45;81.50;99694.19;5117561;28;20802;-68
2023/01/13 07:18:38;;;;;;;6.83;4.10;;;6.60;99.90;;;6.48;81.35;99698.44;5113198;28;20233;-67
2023/01/13 07:21:10;;;;;;;8.60;4.03;;;6.60;99.90;;;6.49;80.91;99695.03;5116903;28;20200;-66
2023/01/13 07:23:41;;;;;;;7.30;4.13;;;6.60;99.90;;;6.52;81.39;99695.03;5100285;28;20226;-66
2023/01/13 07:26:10;;;;;;;7.63;4.23;;;6.70;99.90;;;6.56;80.96;99694.19;5118305;28;20219;-66
2023/01/13 07:28:40;;;;;;;6.40;4.13;;;6.70;99.90;;;6.55;81.26;99684.78;5118348;28;20303;-67
2023/01/13 07:31:15;;;;;;;6.30;4.07;;;6.70;99.90;;;6.58;80.92;99699.28;5114835;28;20208;-67
2023/01/13 07:33:44;;;;;;;5.83;3.40;;;6.70;99.90;;;6.58;80.48;99696.72;5117506;28;20199;-66
2023/01/13 07:36:18;;;;;;;8.30;4.27;;;6.70;99.90;;;6.60;80.90;99695.88;5118269;28;20237;-66
2023/01/13 07:38:46;;;;;;;4.97;3.37;;;6.70;99.90;;;6.60;80.98;99695.88;5118094;28;20202;-67
2023/01/13 07:44:05;;;;;;;7.47;3.80;;;6.80;99.90;;;6.64;81.18;99700.16;5107617;28;20204;-67
2023/01/13 07:46:33;;;;;;;7.27;3.77;;;6.80;99.90;;;6.67;80.23;99702.69;5110996;28;20243;-67
2023/01/13 07:49:02;;;;;;;8.00;3.73;;;6.80;99.90;;;6.68;80.26;99704.41;5107431;28;20215;-66
2023/01/13 07:51:35;;;;;;;6.93;3.93;;;6.80;99.90;;;6.69;80.91;99695.84;5099301;28;20208;-67
2023/01/13 07:54:03;;;;;;;7.13;4.40;;;6.90;99.90;;;6.70;80.51;99694.16;5104748;28;20674;-66
2023/01/13 07:56:32;;;;;;;4.63;3.93;;;6.90;99.90;;;6.70;80.40;99692.47;5109361;28;20196;-65
2023/01/13 07:59:01;;;;;;;6.97;3.87;;;6.90;99.90;;;6.70;80.62;99695.03;5114093;28;20264;-68
2023/01/13 08:01:30;;;;;;;7.33;4.07;;;6.90;99.90;;;6.72;81.15;99698.41;5105869;28;20236;-66
2023/01/13 08:03:59;;;;;;;5.60;3.67;;;6.90;99.90;;;6.75;80.22;99702.69;5106749;28;20265;-67
2023/01/13 08:06:27;;;;;;;4.83;3.60;;;6.90;99.90;;;6.74;81.16;99696.72;5112057;28;20593;-68
2023/01/13 08:08:58;;;;;;;7.30;4.07;;;6.90;99.90;;;6.78;80.67;99698.41;5112550;28;20285;-68
2023/01/13 08:11:27;;;;;;;5.97;3.80;;;6.90;99.90;;;6.82;81.12;99698.41;5104022;27;20231;-69
2023/01/13 08:13:57;;;;;;;7.37;4.47;;;7.00;99.90;;;6.83;80.64;99687.31;5107619;28;20208;-72
2023/01/13 08:16:26;;;;;;;8.00;3.37;;;6.90;99.90;;;6.90;79.90;99706.94;5110565;28;20235;-74
2023/01/13 08:18:58;;;;;;;7.43;4.50;;;7.00;99.90;;;6.89;80.20;99707.78;5116861;28;20214;-70
2023/01/13 08:21:26;;;;;;;6.80;4.30;;;7.00;99.90;;;6.90;81.25;99701.81;5106844;28;20192;-68
2023/01/13 08:23:55;;;;;;;5.70;4.13;;;7.00;99.90;;;6.94;80.40;99708.63;5116935;28;20596;-70
2023/01/13 08:26:25;;;;;;;9.43;4.80;;;7.00;99.90;;;6.95;80.21;99708.59;5116107;28;20215;-69
2023/01/13 08:28:53;;;;;;;8.60;3.87;;;7.10;99.90;;;6.97;80.48;99696.66;5112648;28;20299;-68
2023/01/13 08:31:22;;;;;;;6.40;3.80;;;7.10;99.90;;;7.00;81.15;99701.78;5107876;28;20603;-68
2023/01/13 08:33:50;;;;;;;7.83;4.00;;;7.10;99.90;;;7.03;80.17;99703.47;5112695;28;20204;-69
2023/01/13 08:36:19;;;;;;;9.13;3.67;;;7.20;99.90;;;7.06;80.28;99706.03;5105405;27;20204;-71
2023/01/13 08:38:48;;;;;;;7.80;4.00;;;7.20;99.90;;;7.07;80.47;99701.75;5111581;28;20222;-70
2023/01/13 08:41:53;;;;;;;5.33;3.53;;;7.20;99.90;;;7.10;80.32;99714.56;5105107;28;20208;-70
2023/01/13 08:44:08;;;;;;;4.70;3.67;;;7.20;99.90;;;7.11;80.34;99698.34;5098973;28;20252;-69
2023/01/13 08:46:37;;;;;;;6.97;3.77;;;7.20;99.90;;;7.14;80.54;99712.00;5105291;28;21004;-68
2023/01/13 08:49:06;;;;;;;6.93;3.80;;;7.30;99.90;;;7.18;80.61;99713.69;5102932;28;20235;-69
2023/01/13 08:51:34;;;;;;;6.43;4.17;;;7.30;99.90;;;7.21;80.68;99713.66;5110420;28;20229;-69
2023/01/13 08:54:03;;;;;;;4.70;3.23;;;7.30;99.90;;;7.24;80.40;99710.25;5107253;28;20231;-69
2023/01/13 08:56:32;;;;;;;7.07;4.23;;;7.40;99.90;;;7.26;79.40;99706.81;5101772;28;20211;-70
2023/01/13 08:59:03;;;;;;;6.80;4.00;;;7.30;99.90;;;7.30;79.10;99706.81;5115819;28;20200;-70
2023/01/13 09:01:33;;;;;;;6.57;3.73;;;7.40;99.90;;;7.31;80.02;99713.63;5113811;28;20222;-71
2023/01/13 09:04:01;;;;;;;6.63;4.30;;;7.40;99.90;;;7.31;79.36;99714.50;5107659;28;20203;-70
2023/01/13 09:06:30;;;;;;;5.30;3.90;;;7.40;99.90;;;7.32;79.57;99707.66;5112267;28;20228;-70
2023/01/13 09:09:01;;;;;;;7.63;3.80;;;7.40;99.90;;;7.33;78.94;99729.84;5112904;28;20249;-70
2023/01/13 09:14:21;;;;;;;6.60;3.80;;;7.40;99.90;;;7.29;77.85;99705.97;5100096;28;20611;-70
2023/01/13 09:16:51;;;;;;;7.67;3.77;;;7.40;99.90;;;7.32;77.68;99707.66;5112265;28;20238;-71
2023/01/13 09:19:20;;;;;;;5.33;3.83;;;7.40;99.90;;;7.31;77.94;99703.38;5112659;28;20211;-70
2023/01/13 09:21:48;;;;;;;5.90;3.80;;;7.50;99.90;;;7.35;77.89;99710.22;5107587;28;20200;-69
2023/01/13 09:24:16;;;;;;;8.37;4.17;;;7.40;99.90;;;7.37;78.36;99708.50;5104120;28;20204;-69
2023/01/13 09:26:45;;;;;;;5.27;3.67;;;7.50;99.90;;;7.37;77.07;99703.38;5111233;28;20288;-71
2023/01/13 09:29:14;;;;;;;6.00;3.77;;;7.50;99.90;;;7.36;76.82;99705.06;5112594;28;20203;-69
2023/01/13 09:31:43;;;;;;;6.97;4.10;;;7.50;99.90;;;7.37;77.32;99699.09;5102528;28;20720;-70
2023/01/13 09:37:03;;;;;;;5.97;4.13;;;7.50;99.90;;;7.39;76.62;99701.63;5100871;28;20222;-70
2023/01/13 09:39:32;;;;;;;7.33;4.40;;;7.50;99.90;;;7.46;76.36;99700.75;5113520;28;20196;-70
2023/01/13 09:45:04;;;;;;;6.50;4.70;;;7.60;99.90;;;7.58;76.52;99697.28;5108984;28;20229;-70
2023/01/13 09:47:39;;;;;;;7.37;4.40;;;7.70;99.90;;;7.61;75.46;99693.00;5111351;28;20215;-70
2023/01/13 09:50:24;;;;;;;7.83;4.40;;;7.70;99.90;;;7.61;75.59;99690.44;5111825;28;20207;-70
2023/01/13 09:52:53;;;;;;;6.53;3.70;;;7.70;99.90;;;7.64;75.30;99694.69;5111642;28;20196;-70
2023/01/13 09:55:30;;;;;;;8.70;4.10;;;7.80;99.90;;;7.64;75.34;99690.41;5112098;28;20733;-70
2023/01/13 09:58:01;;;;;;;7.53;4.27;;;7.80;99.90;;;7.67;75.17;99687.00;5109081;28;20231;-70
2023/01/13 10:00:39;;;;;;;6.37;3.67;;;7.80;99.90;;;7.69;74.16;99686.09;5104525;28;20639;-70
2023/01/13 10:03:23;;;;;;;5.73;3.80;;;7.80;99.90;;;7.70;74.67;99680.13;5109520;28;20248;-70
2023/01/13 10:06:15;;;;;;;7.80;3.60;;;7.80;99.90;;;7.73;75.03;99684.38;5096526;28;20203;-71
2023/01/13 10:08:45;;;;;;;6.53;4.07;;;7.90;99.90;;;7.76;74.30;99681.78;5099459;28;20220;-72
2023/01/13 10:14:12;;;;;;;9.17;4.37;;;7.90;99.90;;;7.83;74.91;99672.34;5107183;28;20612;-69
2023/01/13 10:16:51;;;;;;;4.80;3.60;;;8.00;99.90;;;7.88;73.83;99665.47;5110088;28;20332;-67
2023/01/13 10:19:26;;;;;;;6.87;4.10;;;8.00;99.90;;;7.92;73.43;99667.19;5110973;28;20272;-72
2023/01/13 10:22:30;;;;;;;6.93;3.80;;;8.00;99.90;;;7.97;73.63;99668.84;5105622;28;20721;-69
2023/01/13 10:25:24;;;;;;;4.87;4.20;;;8.10;99.90;;;7.97;73.31;99661.13;5104761;28;20192;-71
2023/01/13 10:27:56;;;;;;;4.97;3.40;;;8.10;99.90;;;8.04;73.12;99663.66;5110039;28;20262;-68
2023/01/13 10:30:30;;;;;;;5.70;3.63;;;8.20;99.90;;;8.08;73.31;99668.75;5099393;28;20261;-71
2023/01/13 10:33:02;;;;;;;6.53;3.17;;;8.20;99.90;;;8.10;73.31;99658.47;5101888;28;20203;-71
2023/01/13 10:35:53;;;;;;;6.23;4.07;;;8.20;99.90;;;8.12;72.61;99656.75;5103764;28;20215;-70
2023/01/13 10:38:26;;;;;;;4.30;3.27;;;8.30;99.90;;;8.15;72.00;99651.59;5108227;28;20230;-70
2023/01/13 10:40:57;;;;;;;5.37;3.50;;;8.30;99.90;;;8.16;72.47;99656.72;5097607;28;20273;-71
2023/01/13 10:43:30;;;;;;;4.73;3.47;;;8.30;99.90;;;8.21;72.95;99649.84;5108366;28;20291;-70
2023/01/13 10:46:05;;;;;;;6.63;3.70;;;8.30;99.90;;;8.21;72.21;99660.09;5091821;28;20204;-70
2023/01/13 10:48:40;;;;;;;5.77;3.90;;;8.40;99.90;;;8.25;71.57;99655.81;5106160;28;20212;-70
2023/01/13 10:51:20;;;;;;;5.73;3.57;;;8.40;99.90;;;8.26;71.92;99654.09;5106847;28;20851;-70
2023/01/13 10:53:57;;;;;;;5.10;3.77;;;8.40;99.90;;;8.27;72.31;99648.09;5103131;28;20195;-71
2023/01/13 10:56:30;;;;;;;8.00;4.10;;;8.40;99.90;;;8.29;71.80;99644.66;5110258;28;20286;-70
2023/01/13 10:59:17;;;;;;;7.27;4.10;;;8.50;99.90;;;8.34;71.69;99642.03;5099695;28;20204;-70
2023/01/13 11:01:59;;;;;;;5.50;3.30;;;8.50;99.90;;;8.34;71.19;99634.31;5102978;28;20266;-71
2023/01/13 11:04:34;;;;;;;7.03;3.80;;;8.50;99.90;;;8.38;71.12;99641.16;5106425;28;20203;-70
2023/01/13 11:07:05;;;;;;;5.33;3.50;;;8.50;99.90;;;8.41;71.19;99638.56;5105268;28;20232;-70
2023/01/13 11:09:35;;;;;;;7.20;3.50;;;8.60;99.90;;;8.43;71.01;99629.13;5108187;28;20664;-70
2023/01/13 11:12:04;;;;;;;5.03;3.60;;;8.50;99.90;;;8.44;70.63;99635.97;5104574;28;20196;-72
2023/01/13 11:14:40;;;;;;;6.40;3.73;;;8.60;99.90;;;8.49;70.36;99633.38;5106316;28;20257;-71
2023/01/13 11:17:27;;;;;;;6.93;4.00;;;8.60;99.90;;;8.54;70.93;99635.00;5105471;28;20231;-71
2023/01/13 11:20:04;;;;;;;4.23;3.03;;;8.60;99.90;;;8.56;70.13;99638.44;5111487;28;20716;-68
2023/01/13 11:22:39;;;;;;;5.97;3.70;;;8.70;99.90;;;8.58;69.84;99643.53;5112955;28;20624;-70
2023/01/13 11:25:18;;;;;;;5.27;3.40;;;8.70;99.90;;;8.60;70.13;99645.22;5111172;28;20724;-71
2023/01/13 11:27:54;;;;;;;6.90;4.30;;;8.70;99.90;;;8.63;70.48;99644.34;5111612;28;20683;-71
2023/01/13 11:30:33;;;;;;;7.57;4.00;;;8.70;99.90;;;8.67;70.14;99635.75;5114296;28;20606;-72
2023/01/13 11:33:27;;;;;;;6.33;3.93;;;8.80;99.90;;;8.71;70.36;99638.25;5106984;28;20203;-71
2023/01/13 11:36:07;;;;;;;8.10;4.43;;;8.90;99.90;;;8.73;69.09;99634.81;5112325;28;20203;-70
2023/01/13 11:38:48;;;;;;;5.60;3.60;;;8.90;99.90;;;8.70;68.85;99628.00;5111509;28;20230;-72